Metar Aviation Weather Data EDDG

24°C Temp
6°C Dewpoint
% Humidity
Temperature
11 KM/H
7 MPH
6 KTS
80°
Due East

Wind Speed
Clear
Conditions
Pressure 1020.92 (hPa) - 30.15 (in)
Visibility 6.2 (mi) - 10 (km)

Current Conditions
EDDG
Metar :EDDG 011650Z 08006KT 350V160 CAVOK 24/06 Q1021 NOSIG
Mon 1st June 18:50 pm

  Metar Aviation API Data Provided by https://www.checkwx.com/ PHP scripts by weather34.com ©2020